Xiamen, China
Current Conditions -  °F | °C
As of 7:00 AM on Saturday 25 Oct 2014 (Local Time) from ZSAM Reporting Station
Clear Clear  
Wind Chill: 70°   Ceiling: Unl
Heat Index: 70°   Visibility: 6mi
Dew Point: 64°   Wind: 4mph
Humidity: 83%   Direction: 30°NNE
Pressure: 30.06"   Gusts: NA
Location:  24.45°N, 118.08°E
Report Text: ZSAM 242300Z 03002MPS CAVOK 21/18 Q1018 NOSIG
Loading
Personal Weather Stations






























Interactive Weather Map
Tropical Storm Tracking
New forecast layout! Learn more

10-Day Weather Forecast

Advertisements
Track Severe Weather on mobile